Hovedside
METAR-TAF:

METAR-TAF

Lufthavner :

Damaskus, Syria

breddegrad: 33-25N, lengdegrad: 036-31E, høyde over havet: 608 m

Gjeldene værobservasjon

Denne rapporten ble laget for 18 minutter siden, klokken 12:00 UTC
Vind 12 kt fra Sør-sørvest
Temperatur 13°C
Luftfuktighet 82%
Trykk 1021 hPa
Sikt 10 km eller mer
Spredte skyer i en høyde av 3000 ft
Brutte skyer i en høyde av 10000 ft

METAR: OSDI 181200Z 21012KT 9999 SCT030 BKN100 13/10 Q1021

Tid: 14:18 (12:18 UTC)

Varsel

Varsel gyldig fra 18. klokken 12 UTC til 19. klokken 18 UTC
Vind 15 kt fra Sør-sørvest
Sikt: 8000 m
Spredte skyer i en høyde av 3000 ft
Brutte skyer i en høyde av 10000 ft
Midlertidig
fra 18. klokken 12 UTC til 19. klokken 18 UTC
Vind 15 kt fra Vest-sørvest med vindkast opp mot 25 kt
Sikt: 6000 m
Få skyer i en høyde av 2600 ft
Spredte skyer i en høyde av 3000 ft
Brutte skyer i en høyde av 9000 ft
regnbyger

TAF: OSDI 1812/1918 21015KT 8000 SCT030 BKN100 TEMPO 1812/1918 24015G25KT 6000 SHRA FEW026 CB SCT030 BKN090

Værobservasjoner og værvarsel for over 4000 flyplasser (METAR- og TAF-rapporter).

Tilgjengelige stasjoner er representert av de røde og gule prikkene på kartet.

Hold musepekeren over prikken for å se navnet på stasjonen.

Klikk så for å se værobservasjoner og -varsler.

For å forandre kartet kan du klikke på den grønne knappen med svart kryss for å zoome inn, på den grønne knappen med strek for å zoome ut, eller på de grønne pilene for å se tilstøtende kart.


METAR-TAF: